sensor_id;sensor_type;location;lat;lon;timestamp;P1;durP1;ratioP1;P2;durP2;ratioP2
44304;SDS011;30019;50.576;8.568;2024-03-08T00:00:29;40.50;;;23.65;;
44304;SDS011;30019;50.576;8.568;2024-03-08T00:02:57;41.03;;;24.95;;
44304;SDS011;30019;50.576;8.568;2024-03-08T00:05:23;41.67;;;25.05;;
44304;SDS011;30019;50.576;8.568;2024-03-08T00:07:55;41.35;;;25.17;;
44304;SDS011;30019;50.576;8.568;2024-03-08T00:10:23;46.15;;;25.75;;
44304;SDS011;30019;50.576;8.568;2024-03-08T00:16:24;40.28;;;24.30;;
44304;SDS011;30019;50.576;8.568;2024-03-08T00:18:51;42.80;;;26.08;;
44304;SDS011;30019;50.576;8.568;2024-03-08T00:21:19;42.92;;;24.30;;
44304;SDS011;30019;50.576;8.568;2024-03-08T00:24:10;48.72;;;24.95;;
44304;SDS011;30019;50.576;8.568;2024-03-08T00:26:37;42.67;;;26.42;;
44304;SDS011;30019;50.576;8.568;2024-03-08T00:29:03;45.78;;;26.88;;
44304;SDS011;30019;50.576;8.568;2024-03-08T00:31:29;44.90;;;27.15;;
44304;SDS011;30019;50.576;8.568;2024-03-08T00:33:58;45.45;;;26.77;;
44304;SDS011;30019;50.576;8.568;2024-03-08T00:36:24;44.70;;;27.05;;
44304;SDS011;30019;50.576;8.568;2024-03-08T00:38:51;42.03;;;25.75;;
44304;SDS011;30019;50.576;8.568;2024-03-08T00:41:17;43.47;;;25.77;;
44304;SDS011;30019;50.576;8.568;2024-03-08T00:43:43;42.03;;;26.35;;
44304;SDS011;30019;50.576;8.568;2024-03-08T00:46:19;45.75;;;26.98;;
44304;SDS011;30019;50.576;8.568;2024-03-08T00:48:45;50.05;;;26.98;;
44304;SDS011;30019;50.576;8.568;2024-03-08T00:51:12;42.42;;;26.27;;
44304;SDS011;30019;50.576;8.568;2024-03-08T00:53:40;47.35;;;28.02;;
44304;SDS011;30019;50.576;8.568;2024-03-08T00:56:19;44.15;;;26.20;;
44304;SDS011;30019;50.576;8.568;2024-03-08T00:58:45;50.70;;;27.20;;
44304;SDS011;30019;50.576;8.568;2024-03-08T01:01:12;45.00;;;27.17;;
44304;SDS011;30019;50.576;8.568;2024-03-08T01:03:42;44.67;;;27.42;;
44304;SDS011;30019;50.576;8.568;2024-03-08T01:06:08;49.00;;;27.58;;
44304;SDS011;30019;50.576;8.568;2024-03-08T01:08:36;48.92;;;27.77;;
44304;SDS011;30019;50.576;8.568;2024-03-08T01:11:03;53.80;;;28.13;;
44304;SDS011;30019;50.576;8.568;2024-03-08T01:13:30;42.47;;;26.83;;
44304;SDS011;30019;50.576;8.568;2024-03-08T01:16:15;41.50;;;25.42;;
44304;SDS011;30019;50.576;8.568;2024-03-08T01:18:42;46.60;;;27.15;;
44304;SDS011;30019;50.576;8.568;2024-03-08T01:21:08;45.42;;;27.20;;
44304;SDS011;30019;50.576;8.568;2024-03-08T01:23:34;46.35;;;28.60;;
44304;SDS011;30019;50.576;8.568;2024-03-08T01:26:00;54.30;;;29.63;;
44304;SDS011;30019;50.576;8.568;2024-03-08T01:28:27;46.50;;;26.55;;
44304;SDS011;30019;50.576;8.568;2024-03-08T01:30:59;46.05;;;25.52;;
44304;SDS011;30019;50.576;8.568;2024-03-08T01:33:26;48.13;;;27.42;;
44304;SDS011;30019;50.576;8.568;2024-03-08T01:35:52;45.58;;;27.27;;
44304;SDS011;30019;50.576;8.568;2024-03-08T01:38:53;50.58;;;26.95;;
44304;SDS011;30019;50.576;8.568;2024-03-08T01:42:06;48.00;;;28.05;;
44304;SDS011;30019;50.576;8.568;2024-03-08T01:45:10;49.65;;;28.30;;
44304;SDS011;30019;50.576;8.568;2024-03-08T01:48:04;51.92;;;28.80;;
44304;SDS011;30019;50.576;8.568;2024-03-08T01:50:31;48.85;;;28.33;;
44304;SDS011;30019;50.576;8.568;2024-03-08T01:52:57;52.85;;;30.45;;
44304;SDS011;30019;50.576;8.568;2024-03-08T01:55:25;50.92;;;28.17;;
44304;SDS011;30019;50.576;8.568;2024-03-08T01:57:51;53.35;;;28.40;;
44304;SDS011;30019;50.576;8.568;2024-03-08T02:00:17;49.83;;;27.73;;
44304;SDS011;30019;50.576;8.568;2024-03-08T02:02:44;51.67;;;28.63;;
44304;SDS011;30019;50.576;8.568;2024-03-08T02:05:12;52.13;;;28.13;;
44304;SDS011;30019;50.576;8.568;2024-03-08T02:07:40;50.22;;;28.13;;
44304;SDS011;30019;50.576;8.568;2024-03-08T02:10:09;50.78;;;28.65;;
44304;SDS011;30019;50.576;8.568;2024-03-08T02:12:49;50.83;;;29.00;;
44304;SDS011;30019;50.576;8.568;2024-03-08T02:15:55;48.60;;;27.95;;
44304;SDS011;30019;50.576;8.568;2024-03-08T02:18:22;46.05;;;25.90;;
44304;SDS011;30019;50.576;8.568;2024-03-08T02:20:57;49.67;;;27.70;;
44304;SDS011;30019;50.576;8.568;2024-03-08T02:23:24;49.28;;;27.27;;
44304;SDS011;30019;50.576;8.568;2024-03-08T02:26:11;56.95;;;30.15;;
44304;SDS011;30019;50.576;8.568;2024-03-08T02:28:37;55.53;;;29.65;;
44304;SDS011;30019;50.576;8.568;2024-03-08T02:31:03;52.95;;;29.98;;
44304;SDS011;30019;50.576;8.568;2024-03-08T02:33:33;54.53;;;28.45;;
44304;SDS011;30019;50.576;8.568;2024-03-08T02:36:05;55.00;;;30.17;;
44304;SDS011;30019;50.576;8.568;2024-03-08T02:38:32;55.25;;;28.92;;
44304;SDS011;30019;50.576;8.568;2024-03-08T02:40:58;58.67;;;30.08;;
44304;SDS011;30019;50.576;8.568;2024-03-08T02:43:24;55.50;;;30.30;;
44304;SDS011;30019;50.576;8.568;2024-03-08T02:45:50;54.28;;;28.40;;
44304;SDS011;30019;50.576;8.568;2024-03-08T02:48:19;59.75;;;30.42;;
44304;SDS011;30019;50.576;8.568;2024-03-08T02:54:20;53.15;;;29.88;;
44304;SDS011;30019;50.576;8.568;2024-03-08T02:57:37;51.08;;;28.67;;
44304;SDS011;30019;50.576;8.568;2024-03-08T03:03:52;51.90;;;28.83;;
44304;SDS011;30019;50.576;8.568;2024-03-08T03:06:18;50.00;;;28.83;;
44304;SDS011;30019;50.576;8.568;2024-03-08T03:08:46;55.78;;;30.42;;
44304;SDS011;30019;50.576;8.568;2024-03-08T03:11:18;58.53;;;30.75;;
44304;SDS011;30019;50.576;8.568;2024-03-08T03:14:39;56.83;;;31.27;;
44304;SDS011;30019;50.576;8.568;2024-03-08T03:17:05;52.35;;;28.20;;
44304;SDS011;30019;50.576;8.568;2024-03-08T03:19:31;46.35;;;23.48;;
44304;SDS011;30019;50.576;8.568;2024-03-08T03:22:19;56.85;;;30.33;;
44304;SDS011;30019;50.576;8.568;2024-03-08T03:24:58;56.50;;;30.15;;
44304;SDS011;30019;50.576;8.568;2024-03-08T03:27:26;61.20;;;31.67;;
44304;SDS011;30019;50.576;8.568;2024-03-08T03:29:52;59.05;;;30.90;;
44304;SDS011;30019;50.576;8.568;2024-03-08T03:32:18;53.90;;;30.05;;
44304;SDS011;30019;50.576;8.568;2024-03-08T03:34:44;60.10;;;32.08;;
44304;SDS011;30019;50.576;8.568;2024-03-08T03:37:10;58.03;;;31.90;;
44304;SDS011;30019;50.576;8.568;2024-03-08T03:39:37;54.63;;;31.05;;
44304;SDS011;30019;50.576;8.568;2024-03-08T03:42:18;53.67;;;28.42;;
44304;SDS011;30019;50.576;8.568;2024-03-08T03:44:45;67.78;;;32.90;;
44304;SDS011;30019;50.576;8.568;2024-03-08T03:47:12;66.68;;;32.83;;
44304;SDS011;30019;50.576;8.568;2024-03-08T03:49:38;53.35;;;30.08;;
44304;SDS011;30019;50.576;8.568;2024-03-08T03:52:05;57.53;;;31.30;;
44304;SDS011;30019;50.576;8.568;2024-03-08T03:54:31;59.40;;;32.20;;
44304;SDS011;30019;50.576;8.568;2024-03-08T03:56:58;57.35;;;30.67;;
44304;SDS011;30019;50.576;8.568;2024-03-08T03:59:25;64.68;;;33.70;;
44304;SDS011;30019;50.576;8.568;2024-03-08T04:01:52;59.90;;;31.77;;
44304;SDS011;30019;50.576;8.568;2024-03-08T04:04:27;60.80;;;30.73;;
44304;SDS011;30019;50.576;8.568;2024-03-08T04:06:54;63.22;;;33.17;;
44304;SDS011;30019;50.576;8.568;2024-03-08T04:09:57;55.30;;;30.08;;
44304;SDS011;30019;50.576;8.568;2024-03-08T04:18:52;61.97;;;32.08;;
44304;SDS011;30019;50.576;8.568;2024-03-08T04:21:18;65.70;;;31.48;;
44304;SDS011;30019;50.576;8.568;2024-03-08T04:23:44;59.50;;;29.88;;
44304;SDS011;30019;50.576;8.568;2024-03-08T04:26:11;59.42;;;31.23;;
44304;SDS011;30019;50.576;8.568;2024-03-08T04:28:38;64.78;;;34.65;;
44304;SDS011;30019;50.576;8.568;2024-03-08T04:37:37;57.55;;;31.63;;
44304;SDS011;30019;50.576;8.568;2024-03-08T04:44:05;62.25;;;31.38;;
44304;SDS011;30019;50.576;8.568;2024-03-08T04:46:40;60.67;;;32.17;;
44304;SDS011;30019;50.576;8.568;2024-03-08T04:53:05;64.47;;;33.75;;
44304;SDS011;30019;50.576;8.568;2024-03-08T04:56:10;68.22;;;34.20;;
44304;SDS011;30019;50.576;8.568;2024-03-08T04:58:36;65.25;;;32.95;;
44304;SDS011;30019;50.576;8.568;2024-03-08T05:01:03;70.47;;;34.30;;
44304;SDS011;30019;50.576;8.568;2024-03-08T05:03:29;69.32;;;33.80;;
44304;SDS011;30019;50.576;8.568;2024-03-08T05:05:55;76.60;;;34.75;;
44304;SDS011;30019;50.576;8.568;2024-03-08T05:08:21;61.92;;;33.75;;
44304;SDS011;30019;50.576;8.568;2024-03-08T05:10:47;64.90;;;34.50;;
44304;SDS011;30019;50.576;8.568;2024-03-08T05:15:59;75.90;;;36.80;;
44304;SDS011;30019;50.576;8.568;2024-03-08T05:18:26;63.55;;;33.15;;
44304;SDS011;30019;50.576;8.568;2024-03-08T05:30:12;76.68;;;36.53;;
44304;SDS011;30019;50.576;8.568;2024-03-08T05:33:42;77.97;;;36.60;;
44304;SDS011;30019;50.576;8.568;2024-03-08T05:48:12;74.07;;;35.90;;
44304;SDS011;30019;50.576;8.568;2024-03-08T06:34:23;76.68;;;36.40;;
44304;SDS011;30019;50.576;8.568;2024-03-08T06:55:22;64.38;;;33.60;;
44304;SDS011;30019;50.576;8.568;2024-03-08T06:58:00;62.40;;;33.20;;
44304;SDS011;30019;50.576;8.568;2024-03-08T07:01:01;60.05;;;33.88;;
44304;SDS011;30019;50.576;8.568;2024-03-08T07:06:34;61.60;;;33.47;;
44304;SDS011;30019;50.576;8.568;2024-03-08T07:09:01;62.17;;;32.95;;
44304;SDS011;30019;50.576;8.568;2024-03-08T07:11:27;59.05;;;33.03;;
44304;SDS011;30019;50.576;8.568;2024-03-08T07:13:53;60.35;;;35.53;;
44304;SDS011;30019;50.576;8.568;2024-03-08T07:16:19;69.60;;;36.33;;
44304;SDS011;30019;50.576;8.568;2024-03-08T07:18:46;67.07;;;34.00;;
44304;SDS011;30019;50.576;8.568;2024-03-08T07:21:12;63.05;;;32.85;;
44304;SDS011;30019;50.576;8.568;2024-03-08T07:23:38;63.17;;;32.78;;
44304;SDS011;30019;50.576;8.568;2024-03-08T07:26:36;57.75;;;32.60;;
44304;SDS011;30019;50.576;8.568;2024-03-08T07:29:03;60.42;;;32.90;;
44304;SDS011;30019;50.576;8.568;2024-03-08T07:31:29;59.03;;;33.42;;
44304;SDS011;30019;50.576;8.568;2024-03-08T07:34:07;58.33;;;32.22;;
44304;SDS011;30019;50.576;8.568;2024-03-08T07:36:33;59.42;;;33.45;;
44304;SDS011;30019;50.576;8.568;2024-03-08T07:39:00;56.97;;;31.92;;
44304;SDS011;30019;50.576;8.568;2024-03-08T07:41:26;63.35;;;32.33;;
44304;SDS011;30019;50.576;8.568;2024-03-08T07:43:55;54.47;;;31.85;;
44304;SDS011;30019;50.576;8.568;2024-03-08T07:46:21;53.95;;;31.52;;
44304;SDS011;30019;50.576;8.568;2024-03-08T07:48:48;55.65;;;30.75;;
44304;SDS011;30019;50.576;8.568;2024-03-08T07:51:17;54.20;;;30.27;;
44304;SDS011;30019;50.576;8.568;2024-03-08T07:53:43;51.63;;;28.42;;
44304;SDS011;30019;50.576;8.568;2024-03-08T07:56:09;47.58;;;28.42;;
44304;SDS011;30019;50.576;8.568;2024-03-08T07:58:38;48.72;;;25.73;;
44304;SDS011;30019;50.576;8.568;2024-03-08T08:01:05;51.47;;;28.23;;
44304;SDS011;30019;50.576;8.568;2024-03-08T08:03:31;43.00;;;26.75;;
44304;SDS011;30019;50.576;8.568;2024-03-08T08:05:57;47.75;;;28.60;;
44304;SDS011;30019;50.576;8.568;2024-03-08T08:08:23;47.00;;;27.58;;
44304;SDS011;30019;50.576;8.568;2024-03-08T08:10:51;51.65;;;27.17;;
44304;SDS011;30019;50.576;8.568;2024-03-08T08:13:17;54.40;;;30.13;;
44304;SDS011;30019;50.576;8.568;2024-03-08T08:15:43;47.80;;;27.02;;
44304;SDS011;30019;50.576;8.568;2024-03-08T08:18:10;49.55;;;25.63;;
44304;SDS011;30019;50.576;8.568;2024-03-08T08:20:36;44.63;;;24.10;;
44304;SDS011;30019;50.576;8.568;2024-03-08T08:23:02;41.65;;;23.48;;
44304;SDS011;30019;50.576;8.568;2024-03-08T08:25:28;44.92;;;26.98;;
44304;SDS011;30019;50.576;8.568;2024-03-08T08:27:54;47.90;;;24.05;;
44304;SDS011;30019;50.576;8.568;2024-03-08T08:30:20;37.58;;;21.00;;
44304;SDS011;30019;50.576;8.568;2024-03-08T08:32:46;39.70;;;23.73;;
44304;SDS011;30019;50.576;8.568;2024-03-08T08:35:13;45.03;;;25.92;;
44304;SDS011;30019;50.576;8.568;2024-03-08T08:37:39;37.95;;;25.17;;
44304;SDS011;30019;50.576;8.568;2024-03-08T08:40:06;45.17;;;25.35;;
44304;SDS011;30019;50.576;8.568;2024-03-08T08:42:39;39.13;;;24.77;;
44304;SDS011;30019;50.576;8.568;2024-03-08T08:45:05;30.38;;;18.50;;
44304;SDS011;30019;50.576;8.568;2024-03-08T08:47:35;37.50;;;21.90;;
44304;SDS011;30019;50.576;8.568;2024-03-08T08:50:01;40.42;;;23.58;;
44304;SDS011;30019;50.576;8.568;2024-03-08T08:52:29;36.00;;;23.05;;
44304;SDS011;30019;50.576;8.568;2024-03-08T08:54:55;33.45;;;20.05;;
44304;SDS011;30019;50.576;8.568;2024-03-08T08:57:21;30.70;;;17.10;;
44304;SDS011;30019;50.576;8.568;2024-03-08T08:59:47;35.58;;;21.20;;
44304;SDS011;30019;50.576;8.568;2024-03-08T09:02:13;32.20;;;21.02;;
44304;SDS011;30019;50.576;8.568;2024-03-08T09:04:41;35.47;;;21.70;;
44304;SDS011;30019;50.576;8.568;2024-03-08T09:07:08;29.20;;;17.52;;
44304;SDS011;30019;50.576;8.568;2024-03-08T09:09:34;33.83;;;20.75;;
44304;SDS011;30019;50.576;8.568;2024-03-08T09:12:01;35.17;;;22.27;;
44304;SDS011;30019;50.576;8.568;2024-03-08T09:14:27;33.10;;;20.05;;
44304;SDS011;30019;50.576;8.568;2024-03-08T09:16:53;33.60;;;20.00;;
44304;SDS011;30019;50.576;8.568;2024-03-08T09:19:19;30.25;;;20.02;;
44304;SDS011;30019;50.576;8.568;2024-03-08T09:21:45;35.58;;;20.58;;
44304;SDS011;30019;50.576;8.568;2024-03-08T09:24:12;30.40;;;18.13;;
44304;SDS011;30019;50.576;8.568;2024-03-08T09:26:38;28.52;;;18.35;;
44304;SDS011;30019;50.576;8.568;2024-03-08T09:29:07;27.00;;;16.08;;
44304;SDS011;30019;50.576;8.568;2024-03-08T09:31:33;31.67;;;20.08;;
44304;SDS011;30019;50.576;8.568;2024-03-08T09:33:59;30.65;;;18.75;;
44304;SDS011;30019;50.576;8.568;2024-03-08T09:36:25;29.52;;;19.10;;
44304;SDS011;30019;50.576;8.568;2024-03-08T09:38:52;28.85;;;18.33;;
44304;SDS011;30019;50.576;8.568;2024-03-08T09:41:18;28.25;;;18.48;;
44304;SDS011;30019;50.576;8.568;2024-03-08T09:43:45;32.03;;;20.48;;
44304;SDS011;30019;50.576;8.568;2024-03-08T09:46:11;30.13;;;18.95;;
44304;SDS011;30019;50.576;8.568;2024-03-08T09:48:39;27.08;;;17.70;;
44304;SDS011;30019;50.576;8.568;2024-03-08T09:51:06;29.85;;;19.88;;
44304;SDS011;30019;50.576;8.568;2024-03-08T09:53:33;26.45;;;17.88;;
44304;SDS011;30019;50.576;8.568;2024-03-08T09:55:59;23.88;;;13.48;;
44304;SDS011;30019;50.576;8.568;2024-03-08T09:58:25;30.55;;;19.13;;
44304;SDS011;30019;50.576;8.568;2024-03-08T10:01:00;26.40;;;18.30;;
44304;SDS011;30019;50.576;8.568;2024-03-08T10:03:29;27.23;;;17.85;;
44304;SDS011;30019;50.576;8.568;2024-03-08T10:05:59;17.85;;;11.50;;
44304;SDS011;30019;50.576;8.568;2024-03-08T10:08:29;32.50;;;21.67;;
44304;SDS011;30019;50.576;8.568;2024-03-08T10:10:58;32.22;;;19.52;;
44304;SDS011;30019;50.576;8.568;2024-03-08T10:13:25;30.45;;;20.65;;
44304;SDS011;30019;50.576;8.568;2024-03-08T10:15:54;30.77;;;19.70;;
44304;SDS011;30019;50.576;8.568;2024-03-08T10:18:20;30.75;;;17.92;;
44304;SDS011;30019;50.576;8.568;2024-03-08T10:21:01;28.25;;;18.08;;
44304;SDS011;30019;50.576;8.568;2024-03-08T10:23:29;33.20;;;20.58;;
44304;SDS011;30019;50.576;8.568;2024-03-08T10:25:55;28.10;;;17.52;;
44304;SDS011;30019;50.576;8.568;2024-03-08T10:28:23;29.65;;;19.52;;
44304;SDS011;30019;50.576;8.568;2024-03-08T10:30:50;30.55;;;19.25;;
44304;SDS011;30019;50.576;8.568;2024-03-08T10:33:16;29.55;;;20.00;;
44304;SDS011;30019;50.576;8.568;2024-03-08T10:35:42;30.13;;;19.20;;
44304;SDS011;30019;50.576;8.568;2024-03-08T10:38:08;27.90;;;19.52;;
44304;SDS011;30019;50.576;8.568;2024-03-08T10:40:36;26.77;;;17.63;;
44304;SDS011;30019;50.576;8.568;2024-03-08T10:43:05;33.05;;;20.02;;
44304;SDS011;30019;50.576;8.568;2024-03-08T10:45:38;28.55;;;19.75;;
44304;SDS011;30019;50.576;8.568;2024-03-08T10:48:28;29.02;;;20.10;;
44304;SDS011;30019;50.576;8.568;2024-03-08T10:50:56;23.50;;;15.00;;
44304;SDS011;30019;50.576;8.568;2024-03-08T10:53:23;26.88;;;17.88;;
44304;SDS011;30019;50.576;8.568;2024-03-08T10:55:50;26.70;;;18.90;;
44304;SDS011;30019;50.576;8.568;2024-03-08T10:58:18;25.85;;;18.10;;
44304;SDS011;30019;50.576;8.568;2024-03-08T11:00:45;25.05;;;16.73;;
44304;SDS011;30019;50.576;8.568;2024-03-08T11:05:57;25.30;;;17.42;;
44304;SDS011;30019;50.576;8.568;2024-03-08T11:08:25;24.15;;;16.17;;
44304;SDS011;30019;50.576;8.568;2024-03-08T11:10:52;24.45;;;16.92;;
44304;SDS011;30019;50.576;8.568;2024-03-08T11:13:36;17.42;;;12.57;;
44304;SDS011;30019;50.576;8.568;2024-03-08T11:16:07;16.55;;;11.15;;
44304;SDS011;30019;50.576;8.568;2024-03-08T11:18:34;24.88;;;15.75;;
44304;SDS011;30019;50.576;8.568;2024-03-08T11:21:04;21.58;;;14.93;;
44304;SDS011;30019;50.576;8.568;2024-03-08T11:23:31;15.93;;;12.53;;
44304;SDS011;30019;50.576;8.568;2024-03-08T11:25:58;22.90;;;15.20;;
44304;SDS011;30019;50.576;8.568;2024-03-08T11:28:25;20.13;;;14.20;;
44304;SDS011;30019;50.576;8.568;2024-03-08T11:33:24;18.83;;;12.20;;
44304;SDS011;30019;50.576;8.568;2024-03-08T11:35:50;14.50;;;11.43;;
44304;SDS011;30019;50.576;8.568;2024-03-08T11:38:16;16.55;;;12.35;;
44304;SDS011;30019;50.576;8.568;2024-03-08T11:40:45;18.08;;;13.18;;
44304;SDS011;30019;50.576;8.568;2024-03-08T11:43:15;16.70;;;12.00;;
44304;SDS011;30019;50.576;8.568;2024-03-08T11:45:41;19.30;;;13.70;;
44304;SDS011;30019;50.576;8.568;2024-03-08T11:48:07;17.33;;;13.65;;
44304;SDS011;30019;50.576;8.568;2024-03-08T11:50:33;14.90;;;12.40;;
44304;SDS011;30019;50.576;8.568;2024-03-08T11:53:03;14.48;;;11.43;;
44304;SDS011;30019;50.576;8.568;2024-03-08T11:55:30;15.45;;;11.55;;
44304;SDS011;30019;50.576;8.568;2024-03-08T11:58:04;16.40;;;10.68;;
44304;SDS011;30019;50.576;8.568;2024-03-08T12:00:33;13.70;;;10.93;;
44304;SDS011;30019;50.576;8.568;2024-03-08T12:03:06;13.13;;;9.95;;
44304;SDS011;30019;50.576;8.568;2024-03-08T12:05:32;13.68;;;9.13;;
44304;SDS011;30019;50.576;8.568;2024-03-08T12:07:59;14.65;;;11.35;;
44304;SDS011;30019;50.576;8.568;2024-03-08T12:10:25;11.90;;;10.10;;
44304;SDS011;30019;50.576;8.568;2024-03-08T12:12:54;14.27;;;11.38;;
44304;SDS011;30019;50.576;8.568;2024-03-08T12:15:24;12.93;;;10.25;;
44304;SDS011;30019;50.576;8.568;2024-03-08T12:17:52;15.43;;;10.57;;
44304;SDS011;30019;50.576;8.568;2024-03-08T12:20:18;12.63;;;10.02;;
44304;SDS011;30019;50.576;8.568;2024-03-08T12:22:46;15.43;;;10.65;;
44304;SDS011;30019;50.576;8.568;2024-03-08T12:25:13;14.35;;;10.77;;
44304;SDS011;30019;50.576;8.568;2024-03-08T12:27:41;13.80;;;11.13;;
44304;SDS011;30019;50.576;8.568;2024-03-08T12:30:20;12.82;;;11.07;;
44304;SDS011;30019;50.576;8.568;2024-03-08T12:32:53;15.02;;;11.40;;
44304;SDS011;30019;50.576;8.568;2024-03-08T12:35:21;15.30;;;11.80;;
44304;SDS011;30019;50.576;8.568;2024-03-08T12:37:54;15.60;;;10.48;;
44304;SDS011;30019;50.576;8.568;2024-03-08T12:40:28;14.10;;;10.75;;
44304;SDS011;30019;50.576;8.568;2024-03-08T12:42:55;12.30;;;10.50;;
44304;SDS011;30019;50.576;8.568;2024-03-08T12:45:22;12.38;;;10.55;;
44304;SDS011;30019;50.576;8.568;2024-03-08T12:47:49;15.32;;;11.75;;
44304;SDS011;30019;50.576;8.568;2024-03-08T12:50:15;14.30;;;11.23;;
44304;SDS011;30019;50.576;8.568;2024-03-08T12:52:42;13.60;;;11.10;;
44304;SDS011;30019;50.576;8.568;2024-03-08T12:55:08;13.82;;;10.43;;
44304;SDS011;30019;50.576;8.568;2024-03-08T12:57:35;11.70;;;9.80;;
44304;SDS011;30019;50.576;8.568;2024-03-08T13:00:02;11.35;;;8.82;;
44304;SDS011;30019;50.576;8.568;2024-03-08T13:02:29;13.88;;;11.75;;
44304;SDS011;30019;50.576;8.568;2024-03-08T13:07:24;14.18;;;11.88;;
44304;SDS011;30019;50.576;8.568;2024-03-08T13:09:53;14.75;;;11.77;;
44304;SDS011;30019;50.576;8.568;2024-03-08T13:12:20;15.60;;;11.55;;
44304;SDS011;30019;50.576;8.568;2024-03-08T13:14:46;17.48;;;13.43;;
44304;SDS011;30019;50.576;8.568;2024-03-08T13:17:16;16.23;;;13.18;;
44304;SDS011;30019;50.576;8.568;2024-03-08T13:19:43;16.65;;;11.90;;
44304;SDS011;30019;50.576;8.568;2024-03-08T13:22:10;16.40;;;12.55;;
44304;SDS011;30019;50.576;8.568;2024-03-08T13:24:41;15.52;;;12.73;;
44304;SDS011;30019;50.576;8.568;2024-03-08T13:27:10;15.48;;;12.32;;
44304;SDS011;30019;50.576;8.568;2024-03-08T13:29:45;14.07;;;11.95;;
44304;SDS011;30019;50.576;8.568;2024-03-08T13:32:12;14.32;;;11.18;;
44304;SDS011;30019;50.576;8.568;2024-03-08T13:34:42;17.70;;;13.18;;
44304;SDS011;30019;50.576;8.568;2024-03-08T13:37:08;16.42;;;12.88;;
44304;SDS011;30019;50.576;8.568;2024-03-08T13:39:35;14.90;;;12.15;;
44304;SDS011;30019;50.576;8.568;2024-03-08T13:42:08;14.38;;;12.02;;
44304;SDS011;30019;50.576;8.568;2024-03-08T13:44:37;19.33;;;12.93;;
44304;SDS011;30019;50.576;8.568;2024-03-08T13:47:03;18.67;;;13.32;;
44304;SDS011;30019;50.576;8.568;2024-03-08T13:49:30;19.05;;;13.80;;
44304;SDS011;30019;50.576;8.568;2024-03-08T13:51:56;14.18;;;10.65;;
44304;SDS011;30019;50.576;8.568;2024-03-08T13:54:26;21.23;;;13.50;;
44304;SDS011;30019;50.576;8.568;2024-03-08T13:56:52;17.42;;;12.82;;
44304;SDS011;30019;50.576;8.568;2024-03-08T13:59:19;23.58;;;14.05;;
44304;SDS011;30019;50.576;8.568;2024-03-08T14:01:47;15.85;;;12.57;;
44304;SDS011;30019;50.576;8.568;2024-03-08T14:04:16;17.92;;;13.88;;
44304;SDS011;30019;50.576;8.568;2024-03-08T14:06:42;18.75;;;13.32;;
44304;SDS011;30019;50.576;8.568;2024-03-08T14:09:11;18.98;;;14.38;;
44304;SDS011;30019;50.576;8.568;2024-03-08T14:11:44;24.20;;;14.73;;
44304;SDS011;30019;50.576;8.568;2024-03-08T14:14:10;20.55;;;14.32;;
44304;SDS011;30019;50.576;8.568;2024-03-08T14:16:39;19.33;;;14.32;;
44304;SDS011;30019;50.576;8.568;2024-03-08T14:19:05;19.50;;;14.52;;
44304;SDS011;30019;50.576;8.568;2024-03-08T14:21:32;16.83;;;12.98;;
44304;SDS011;30019;50.576;8.568;2024-03-08T14:23:58;18.08;;;13.82;;
44304;SDS011;30019;50.576;8.568;2024-03-08T14:26:24;19.65;;;13.63;;
44304;SDS011;30019;50.576;8.568;2024-03-08T14:28:51;20.27;;;13.75;;
44304;SDS011;30019;50.576;8.568;2024-03-08T14:31:19;20.48;;;14.20;;
44304;SDS011;30019;50.576;8.568;2024-03-08T14:33:48;21.08;;;14.88;;
44304;SDS011;30019;50.576;8.568;2024-03-08T14:36:15;20.80;;;14.60;;
44304;SDS011;30019;50.576;8.568;2024-03-08T14:38:42;17.65;;;13.30;;
44304;SDS011;30019;50.576;8.568;2024-03-08T14:41:08;17.88;;;12.43;;
44304;SDS011;30019;50.576;8.568;2024-03-08T14:43:34;22.30;;;14.80;;
44304;SDS011;30019;50.576;8.568;2024-03-08T14:46:01;21.42;;;14.82;;
44304;SDS011;30019;50.576;8.568;2024-03-08T14:48:28;18.95;;;13.82;;
44304;SDS011;30019;50.576;8.568;2024-03-08T14:50:54;19.20;;;13.13;;
44304;SDS011;30019;50.576;8.568;2024-03-08T14:53:20;21.38;;;14.20;;
44304;SDS011;30019;50.576;8.568;2024-03-08T14:55:46;21.30;;;14.25;;
44304;SDS011;30019;50.576;8.568;2024-03-08T14:58:13;21.27;;;14.73;;
44304;SDS011;30019;50.576;8.568;2024-03-08T15:00:39;18.77;;;14.13;;
44304;SDS011;30019;50.576;8.568;2024-03-08T15:03:06;23.08;;;15.65;;
44304;SDS011;30019;50.576;8.568;2024-03-08T15:05:36;21.75;;;15.00;;
44304;SDS011;30019;50.576;8.568;2024-03-08T15:08:07;17.55;;;13.07;;
44304;SDS011;30019;50.576;8.568;2024-03-08T15:10:36;20.15;;;13.52;;
44304;SDS011;30019;50.576;8.568;2024-03-08T15:13:05;23.08;;;15.35;;
44304;SDS011;30019;50.576;8.568;2024-03-08T15:15:41;22.40;;;14.82;;
44304;SDS011;30019;50.576;8.568;2024-03-08T15:18:10;24.15;;;15.73;;
44304;SDS011;30019;50.576;8.568;2024-03-08T15:20:37;26.35;;;16.30;;
44304;SDS011;30019;50.576;8.568;2024-03-08T15:23:03;23.05;;;15.35;;
44304;SDS011;30019;50.576;8.568;2024-03-08T15:25:29;24.52;;;15.85;;
44304;SDS011;30019;50.576;8.568;2024-03-08T15:27:56;23.27;;;15.52;;
44304;SDS011;30019;50.576;8.568;2024-03-08T15:30:27;20.20;;;14.70;;
44304;SDS011;30019;50.576;8.568;2024-03-08T15:32:55;22.15;;;15.25;;
44304;SDS011;30019;50.576;8.568;2024-03-08T15:35:22;25.23;;;14.90;;
44304;SDS011;30019;50.576;8.568;2024-03-08T15:37:50;22.98;;;13.57;;
44304;SDS011;30019;50.576;8.568;2024-03-08T15:40:17;21.98;;;14.98;;
44304;SDS011;30019;50.576;8.568;2024-03-08T15:45:19;27.00;;;15.38;;
44304;SDS011;30019;50.576;8.568;2024-03-08T15:47:46;26.10;;;16.58;;
44304;SDS011;30019;50.576;8.568;2024-03-08T15:50:13;26.58;;;16.05;;
44304;SDS011;30019;50.576;8.568;2024-03-08T15:52:39;25.67;;;15.93;;
44304;SDS011;30019;50.576;8.568;2024-03-08T15:55:06;22.73;;;16.02;;
44304;SDS011;30019;50.576;8.568;2024-03-08T15:57:32;22.73;;;15.93;;
44304;SDS011;30019;50.576;8.568;2024-03-08T15:59:58;22.35;;;15.75;;
44304;SDS011;30019;50.576;8.568;2024-03-08T16:02:25;23.95;;;14.02;;
44304;SDS011;30019;50.576;8.568;2024-03-08T16:04:53;24.88;;;14.88;;
44304;SDS011;30019;50.576;8.568;2024-03-08T16:07:19;23.95;;;15.23;;
44304;SDS011;30019;50.576;8.568;2024-03-08T16:09:45;21.85;;;15.55;;
44304;SDS011;30019;50.576;8.568;2024-03-08T16:12:11;20.77;;;13.63;;
44304;SDS011;30019;50.576;8.568;2024-03-08T16:14:38;20.88;;;14.60;;
44304;SDS011;30019;50.576;8.568;2024-03-08T16:17:04;23.70;;;15.10;;
44304;SDS011;30019;50.576;8.568;2024-03-08T16:19:30;22.55;;;14.05;;
44304;SDS011;30019;50.576;8.568;2024-03-08T16:21:56;21.52;;;14.88;;
44304;SDS011;30019;50.576;8.568;2024-03-08T16:24:22;21.45;;;13.90;;
44304;SDS011;30019;50.576;8.568;2024-03-08T16:26:48;23.88;;;14.70;;
44304;SDS011;30019;50.576;8.568;2024-03-08T16:29:15;24.85;;;14.35;;
44304;SDS011;30019;50.576;8.568;2024-03-08T16:31:41;22.05;;;14.57;;
44304;SDS011;30019;50.576;8.568;2024-03-08T16:34:10;21.90;;;14.63;;
44304;SDS011;30019;50.576;8.568;2024-03-08T16:36:36;20.08;;;12.52;;
44304;SDS011;30019;50.576;8.568;2024-03-08T16:39:05;20.25;;;14.15;;
44304;SDS011;30019;50.576;8.568;2024-03-08T16:41:31;20.52;;;14.05;;
44304;SDS011;30019;50.576;8.568;2024-03-08T16:43:57;25.77;;;14.75;;